createdAt,value
2018-11-01T00:00:19.021Z,30.90
2018-11-01T00:02:48.042Z,27.48
2018-11-01T00:05:17.005Z,31.30
2018-11-01T00:07:45.897Z,24.02
2018-11-01T00:10:14.644Z,40.85
2018-11-01T00:12:44.228Z,27.55
2018-11-01T00:15:14.009Z,23.42
2018-11-01T00:17:42.534Z,18.80
2018-11-01T00:20:13.231Z,18.37
2018-11-01T00:22:42.604Z,20.10
2018-11-01T00:25:12.249Z,23.77
2018-11-01T00:27:41.925Z,20.72
2018-11-01T00:30:11.040Z,23.35
2018-11-01T00:32:39.728Z,20.10
2018-11-01T00:35:08.918Z,25.62
2018-11-01T00:37:37.428Z,26.33
2018-11-01T00:40:08.689Z,18.55
2018-11-01T00:42:37.418Z,18.85
2018-11-01T00:45:06.930Z,21.33
2018-11-01T00:47:35.906Z,19.00
2018-11-01T00:50:05.042Z,16.85
2018-11-01T00:52:33.589Z,18.80
2018-11-01T00:55:02.145Z,16.12
2018-11-01T00:57:30.673Z,17.35
2018-11-01T00:59:59.198Z,18.75
2018-11-01T01:02:27.762Z,14.25
2018-11-01T01:04:56.311Z,13.88
2018-11-01T01:07:24.925Z,13.48
2018-11-01T01:09:53.481Z,12.68
2018-11-01T01:12:22.055Z,11.83
2018-11-01T01:14:50.589Z,19.00
2018-11-01T01:17:19.126Z,13.70
2018-11-01T01:19:47.655Z,14.90
2018-11-01T01:22:16.192Z,12.82
2018-11-01T01:24:44.797Z,11.83
2018-11-01T01:27:13.450Z,11.88
2018-11-01T01:29:41.981Z,9.48
2018-11-01T01:32:10.701Z,8.35
2018-11-01T01:34:39.340Z,13.15
2018-11-01T01:37:07.815Z,8.93
2018-11-01T01:39:36.338Z,7.92
2018-11-01T01:42:05.122Z,9.58
2018-11-01T01:44:33.694Z,13.60
2018-11-01T01:47:02.252Z,8.13
2018-11-01T01:49:30.801Z,9.65
2018-11-01T01:51:59.333Z,13.25
2018-11-01T01:54:27.863Z,9.25
2018-11-01T01:56:56.378Z,8.80
2018-11-01T01:59:24.905Z,8.73
2018-11-01T02:01:53.416Z,10.20
2018-11-01T02:04:21.982Z,8.03
2018-11-01T02:06:50.551Z,11.88
2018-11-01T02:09:19.133Z,12.93
2018-11-01T02:11:47.720Z,12.33
2018-11-01T02:14:16.198Z,13.25
2018-11-01T02:16:44.742Z,14.75
2018-11-01T02:19:13.697Z,14.78
2018-11-01T02:21:42.315Z,12.00
2018-11-01T02:24:10.849Z,10.93
2018-11-01T02:26:39.382Z,13.93
2018-11-01T02:29:07.906Z,11.90
2018-11-01T02:31:36.426Z,13.22
2018-11-01T02:34:05.391Z,12.98
2018-11-01T02:36:34.007Z,16.23
2018-11-01T07:42:04.614Z,31.05
2018-11-01T07:44:33.236Z,36.68
2018-11-01T07:47:01.760Z,31.73
2018-11-01T07:49:30.298Z,33.88
2018-11-01T07:51:58.820Z,28.30
2018-11-01T07:54:27.361Z,31.77
2018-11-01T07:56:55.955Z,24.45
2018-11-01T07:59:31.323Z,26.45
2018-11-01T08:01:59.881Z,29.00
2018-11-01T08:04:28.405Z,25.05
2018-11-01T08:06:57.005Z,26.02
2018-11-01T08:09:25.554Z,21.10
2018-11-01T08:11:54.162Z,25.15
2018-11-01T08:14:22.729Z,15.80
2018-11-01T08:16:51.271Z,18.98
2018-11-01T08:19:19.875Z,18.42
2018-11-01T08:21:48.406Z,29.87
2018-11-01T08:24:17.065Z,20.75
2018-11-01T08:26:45.583Z,23.25
2018-11-01T08:29:14.166Z,20.12
2018-11-01T08:31:42.853Z,21.65
2018-11-01T08:34:11.379Z,21.23
2018-11-01T08:36:39.905Z,26.00
2018-11-01T08:39:09.224Z,22.93
2018-11-01T08:41:37.920Z,26.07
2018-11-01T08:44:07.005Z,24.50
2018-11-01T08:46:35.574Z,39.65
2018-11-01T08:49:04.285Z,38.92
2018-11-01T08:51:32.872Z,39.50
2018-11-01T08:54:01.381Z,25.68
2018-11-01T08:56:29.965Z,19.12
2018-11-01T08:58:58.618Z,18.85
2018-11-01T09:01:27.186Z,18.70
2018-11-01T09:03:55.770Z,29.07
2018-11-01T09:06:24.321Z,25.35
2018-11-01T09:08:52.873Z,28.32
2018-11-01T09:11:21.530Z,14.53
2018-11-01T09:13:50.109Z,21.87
2018-11-01T09:16:18.640Z,18.60
2018-11-01T09:18:47.205Z,36.35
2018-11-01T09:21:15.805Z,43.13
2018-11-01T09:23:44.401Z,24.92
2018-11-01T09:26:12.957Z,22.65
2018-11-01T09:28:41.614Z,20.35
2018-11-01T09:31:10.130Z,32.60
2018-11-01T09:33:38.797Z,34.15
2018-11-01T09:36:07.341Z,34.67
2018-11-01T09:38:35.961Z,24.32
2018-11-01T09:41:04.496Z,24.45
2018-11-01T09:43:33.113Z,26.02
2018-11-01T09:46:01.750Z,14.63
2018-11-01T09:48:30.278Z,16.57
2018-11-01T09:50:58.833Z,19.35
2018-11-01T09:53:27.530Z,20.82
2018-11-01T09:55:56.264Z,28.57
2018-11-01T09:58:24.746Z,13.88
2018-11-01T10:00:53.307Z,24.40
2018-11-01T10:03:21.955Z,31.55
2018-11-01T10:05:50.534Z,36.97
2018-11-01T10:08:19.102Z,33.17
2018-11-01T10:10:47.718Z,38.83
2018-11-01T10:13:16.283Z,20.17
2018-11-01T10:15:45.071Z,26.10
2018-11-01T10:18:13.987Z,21.40
2018-11-01T10:20:42.079Z,17.47
2018-11-01T10:23:10.791Z,14.43
2018-11-01T10:25:39.353Z,14.70
2018-11-01T10:28:07.949Z,10.33
2018-11-01T10:30:36.488Z,11.80
2018-11-01T10:33:05.346Z,16.50
2018-11-01T10:35:34.017Z,4.57
2018-11-01T10:38:02.724Z,4.47
2018-11-01T10:40:31.312Z,5.30
2018-11-01T10:42:59.909Z,9.00
2018-11-01T10:45:28.507Z,6.10
2018-11-01T10:47:57.181Z,15.30
2018-11-01T10:50:25.794Z,7.20
2018-11-01T10:52:54.590Z,4.10
2018-11-01T10:55:23.240Z,6.80
2018-11-01T10:57:51.885Z,6.33
2018-11-01T11:00:25.855Z,4.93
2018-11-01T11:02:54.454Z,5.30
2018-11-01T11:05:23.474Z,4.13
2018-11-01T11:07:52.050Z,9.73
2018-11-01T11:10:20.850Z,8.10
2018-11-01T11:12:49.398Z,4.23
2018-11-01T11:15:18.090Z,3.93
2018-11-01T11:17:46.614Z,5.87
2018-11-01T11:20:15.302Z,3.60
2018-11-01T11:22:43.852Z,7.40
2018-11-01T11:25:12.922Z,8.47
2018-11-01T11:27:41.682Z,7.63
2018-11-01T11:30:11.193Z,4.20
2018-11-01T11:32:39.942Z,6.70
2018-11-01T11:35:09.485Z,3.37
2018-11-01T11:37:38.049Z,5.73
2018-11-01T11:40:08.261Z,5.60
2018-11-01T11:42:36.941Z,4.13
2018-11-01T11:45:06.694Z,5.30
2018-11-01T11:47:35.299Z,3.70
2018-11-01T11:50:04.427Z,5.37
2018-11-01T11:52:33.024Z,6.77
2018-11-01T11:55:01.686Z,4.03
2018-11-01T11:57:30.346Z,4.20
2018-11-01T11:59:59.012Z,5.27
2018-11-01T12:02:27.647Z,4.00
2018-11-01T12:04:56.225Z,2.87
2018-11-01T12:07:24.933Z,3.23
2018-11-01T12:09:53.629Z,5.10
2018-11-01T12:12:22.368Z,3.00
2018-11-01T12:14:51.037Z,5.03
2018-11-01T12:17:19.595Z,5.13
2018-11-01T12:19:48.350Z,2.93
2018-11-01T12:22:17.019Z,5.13
2018-11-01T12:24:45.512Z,5.67
2018-11-01T12:27:14.069Z,4.20
2018-11-01T12:29:42.645Z,4.00
2018-11-01T12:32:11.365Z,5.13
2018-11-01T12:34:40.195Z,4.10
2018-11-01T12:37:08.866Z,3.17
2018-11-01T12:39:37.454Z,4.63
2018-11-01T12:42:06.075Z,5.90
2018-11-01T12:44:34.630Z,6.77
2018-11-01T12:47:03.230Z,7.13
2018-11-01T12:49:31.878Z,8.80
2018-11-01T12:52:00.404Z,4.23
2018-11-01T12:54:28.974Z,4.27
2018-11-01T12:56:57.969Z,4.33
2018-11-01T12:59:26.641Z,3.57
2018-11-01T13:01:55.307Z,7.03
2018-11-01T13:04:24.083Z,4.10
2018-11-01T13:06:52.680Z,4.40
2018-11-01T13:09:21.301Z,3.10
2018-11-01T13:11:49.890Z,4.17
2018-11-01T13:14:18.531Z,5.00
2018-11-01T13:16:47.211Z,3.70
2018-11-01T13:19:15.781Z,4.00
2018-11-01T13:21:44.456Z,4.13
2018-11-01T13:24:13.002Z,3.37
2018-11-01T13:26:41.637Z,5.20
2018-11-01T13:29:10.319Z,4.00
2018-11-01T13:31:39.044Z,4.27
2018-11-01T13:34:07.759Z,4.37
2018-11-01T13:36:36.442Z,4.03
2018-11-01T13:39:07.150Z,3.97
2018-11-01T13:41:36.117Z,6.00
2018-11-01T13:44:05.139Z,6.47
2018-11-01T13:46:33.937Z,4.43
2018-11-01T13:49:02.450Z,7.10
2018-11-01T13:51:31.189Z,6.53
2018-11-01T13:53:59.769Z,4.00
2018-11-01T13:56:28.676Z,4.10
2018-11-01T13:58:57.381Z,6.40
2018-11-01T14:01:25.992Z,4.37
2018-11-01T14:03:54.641Z,4.77
2018-11-01T14:06:23.258Z,5.73
2018-11-01T14:08:52.138Z,9.93
2018-11-01T14:11:20.696Z,7.33
2018-11-01T14:13:49.414Z,4.37
2018-11-01T14:16:17.843Z,6.63
2018-11-01T14:18:46.713Z,7.60
2018-11-01T14:21:15.397Z,4.90
2018-11-01T14:23:44.042Z,6.27
2018-11-01T14:26:13.058Z,6.80
2018-11-01T14:28:42.021Z,5.83
2018-11-01T14:31:11.095Z,6.77
2018-11-01T14:33:39.638Z,6.67
2018-11-01T14:36:08.849Z,8.40
2018-11-01T14:38:37.441Z,11.73
2018-11-01T14:41:06.404Z,8.83
2018-11-01T14:43:35.162Z,5.87
2018-11-01T14:46:03.834Z,5.30
2018-11-01T14:48:32.596Z,7.27
2018-11-01T14:51:01.184Z,5.70
2018-11-01T14:53:30.913Z,8.70
2018-11-01T14:55:59.601Z,6.87
2018-11-01T14:58:28.028Z,7.03
2018-11-01T15:00:55.908Z,7.07
2018-11-01T15:03:24.504Z,7.90
2018-11-01T15:05:53.088Z,7.20
2018-11-01T15:08:21.694Z,8.20
2018-11-01T15:10:50.333Z,8.53
2018-11-01T15:13:19.081Z,7.60
2018-11-01T15:15:47.656Z,6.07
2018-11-01T15:18:16.439Z,7.97
2018-11-01T15:20:44.988Z,5.80
2018-11-01T15:23:13.708Z,5.53
2018-11-01T15:25:42.373Z,5.60
2018-11-01T15:28:11.054Z,6.23
2018-11-01T15:30:39.735Z,7.93
2018-11-01T15:33:08.301Z,9.13
2018-11-01T15:35:37.032Z,9.70
2018-11-01T15:38:05.626Z,7.87
2018-11-01T15:40:34.262Z,9.03
2018-11-01T15:43:02.961Z,8.00
2018-11-01T15:45:31.603Z,7.73
2018-11-01T15:48:00.332Z,12.13
2018-11-01T15:50:28.989Z,8.63
2018-11-01T15:52:57.608Z,9.90
2018-11-01T15:55:26.353Z,7.07
2018-11-01T15:57:54.950Z,9.20
2018-11-01T16:00:23.725Z,7.47
2018-11-01T16:02:52.417Z,7.37
2018-11-01T16:05:21.043Z,8.43
2018-11-01T16:07:49.632Z,14.07
2018-11-01T16:10:18.372Z,10.60
2018-11-01T16:12:46.846Z,10.10
2018-11-01T16:15:16.560Z,11.40
2018-11-01T16:17:45.116Z,7.90
2018-11-01T16:20:13.934Z,7.83
2018-11-01T16:22:42.481Z,7.93
2018-11-01T16:25:11.032Z,6.20
2018-11-01T16:27:39.605Z,8.20
2018-11-01T16:30:08.799Z,13.90
2018-11-01T16:32:37.370Z,7.60
2018-11-01T16:35:06.482Z,6.43
2018-11-01T16:37:35.078Z,8.70
2018-11-01T16:40:05.058Z,6.80
2018-11-01T16:42:33.872Z,7.60
2018-11-01T16:45:02.487Z,8.38
2018-11-01T16:47:31.163Z,11.10
2018-11-01T16:49:59.781Z,7.58
2018-11-01T16:52:28.365Z,12.93
2018-11-01T16:54:56.906Z,12.53
2018-11-01T16:57:25.568Z,13.13
2018-11-01T16:59:54.188Z,40.98
2018-11-01T17:02:22.881Z,56.53
2018-11-01T17:04:51.651Z,53.23
2018-11-01T17:07:20.283Z,33.90
2018-11-01T17:09:48.835Z,15.13
2018-11-01T17:12:17.428Z,12.45
2018-11-01T17:14:46.220Z,9.70
2018-11-01T17:17:14.793Z,9.58
2018-11-01T17:19:43.497Z,9.80
2018-11-01T17:22:12.165Z,8.73
2018-11-01T17:24:40.738Z,9.10
2018-11-01T17:27:09.382Z,9.60
2018-11-01T17:29:38.031Z,10.03
2018-11-01T17:32:06.747Z,13.93
2018-11-01T17:34:35.408Z,16.10
2018-11-01T17:37:04.096Z,12.75
2018-11-01T17:39:32.812Z,14.03
2018-11-01T17:42:01.386Z,14.90
2018-11-01T17:44:30.128Z,16.52
2018-11-01T17:46:58.707Z,16.60
2018-11-01T17:49:27.413Z,17.27
2018-11-01T17:51:56.061Z,16.23
2018-11-01T17:54:24.658Z,18.65
2018-11-01T17:56:53.398Z,14.18
2018-11-01T17:59:21.986Z,16.93
2018-11-01T18:01:50.610Z,15.28
2018-11-01T18:04:19.133Z,14.20
2018-11-01T18:06:47.716Z,15.95
2018-11-01T18:09:16.627Z,21.02
2018-11-01T18:11:45.521Z,13.72
2018-11-01T18:14:14.101Z,16.90
2018-11-01T18:16:42.648Z,19.70
2018-11-01T18:19:11.291Z,15.35
2018-11-01T18:21:39.984Z,17.37
2018-11-01T18:24:08.625Z,16.37
2018-11-01T18:26:37.454Z,13.72
2018-11-01T18:29:06.455Z,13.90
2018-11-01T18:31:34.965Z,11.63
2018-11-01T18:34:03.529Z,15.10
2018-11-01T18:36:32.144Z,12.30
2018-11-01T18:39:00.704Z,13.05
2018-11-01T18:41:29.461Z,15.50
2018-11-01T18:43:58.040Z,18.37
2018-11-01T18:46:26.657Z,21.57
2018-11-01T18:48:55.385Z,13.25
2018-11-01T18:51:24.699Z,11.97
2018-11-01T18:53:53.383Z,12.60
2018-11-01T18:56:22.180Z,15.03
2018-11-01T18:58:50.837Z,14.30
2018-11-01T19:01:19.566Z,15.90
2018-11-01T19:03:48.198Z,19.40
2018-11-01T19:06:16.909Z,15.58
2018-11-01T19:08:45.516Z,16.40
2018-11-01T19:11:14.097Z,14.38
2018-11-01T19:13:42.799Z,18.23
2018-11-01T19:16:11.326Z,17.98
2018-11-01T19:18:39.970Z,17.85
2018-11-01T19:21:08.706Z,16.23
2018-11-01T19:23:37.250Z,17.87
2018-11-01T19:26:06.274Z,14.05
2018-11-01T19:28:34.829Z,17.05
2018-11-01T19:31:03.403Z,15.60
2018-11-01T19:33:32.011Z,17.02
2018-11-01T19:36:00.614Z,16.32
2018-11-01T19:38:29.262Z,15.65
2018-11-01T19:40:57.811Z,15.15
2018-11-01T19:43:26.497Z,18.17
2018-11-01T19:45:55.129Z,14.13
2018-11-01T19:48:23.881Z,17.40
2018-11-01T19:50:52.549Z,11.48
2018-11-01T19:53:21.097Z,12.20
2018-11-01T19:55:49.717Z,22.20
2018-11-01T19:58:18.322Z,28.23
2018-11-01T20:00:47.073Z,22.35
2018-11-01T20:03:15.714Z,25.40
2018-11-01T20:05:44.319Z,26.05
2018-11-01T20:08:13.033Z,17.82
2018-11-01T20:10:41.666Z,17.77
2018-11-01T20:13:10.227Z,15.95
2018-11-01T20:15:39.054Z,17.92
2018-11-01T20:18:07.740Z,18.85
2018-11-01T20:20:36.363Z,18.32
2018-11-01T20:23:04.993Z,20.57
2018-11-01T20:25:33.601Z,29.37
2018-11-01T20:28:02.270Z,37.20
2018-11-01T20:30:30.849Z,29.92
2018-11-01T20:32:59.440Z,24.90
2018-11-01T20:35:27.970Z,19.42
2018-11-01T20:37:56.733Z,22.60
2018-11-01T20:40:25.427Z,19.37
2018-11-01T20:42:54.118Z,20.45
2018-11-01T20:45:23.434Z,18.32
2018-11-01T20:47:52.053Z,21.25
2018-11-01T20:50:20.767Z,23.95
2018-11-01T20:52:49.341Z,27.65
2018-11-01T20:55:18.010Z,30.02
2018-11-01T20:57:46.779Z,28.70
2018-11-01T21:00:15.855Z,26.20
2018-11-01T21:02:44.649Z,29.98
2018-11-01T21:05:13.358Z,25.45
2018-11-01T21:07:41.933Z,23.02
2018-11-01T21:10:11.318Z,21.55
2018-11-01T21:12:40.299Z,27.10
2018-11-01T21:15:10.738Z,30.77
2018-11-01T21:17:39.424Z,20.60
2018-11-01T21:20:08.572Z,19.40
2018-11-01T21:22:37.278Z,25.75
2018-11-01T21:25:06.761Z,23.02
2018-11-01T21:27:35.444Z,19.02
2018-11-01T21:30:04.462Z,23.25
2018-11-01T21:32:33.873Z,17.82
2018-11-01T21:35:02.607Z,21.93
2018-11-01T21:37:31.628Z,25.55
2018-11-01T21:40:00.222Z,22.82
2018-11-01T21:42:28.822Z,20.88
2018-11-01T21:44:57.519Z,16.97
2018-11-01T21:47:26.093Z,22.17
2018-11-01T21:49:54.774Z,19.52
2018-11-01T21:52:23.435Z,21.93
2018-11-01T21:54:52.286Z,22.75
2018-11-01T21:57:20.958Z,22.93
2018-11-01T21:59:49.585Z,21.87
2018-11-01T22:02:18.164Z,21.55
2018-11-01T22:04:46.694Z,20.92
2018-11-01T22:07:15.313Z,24.87
2018-11-01T22:09:43.915Z,22.02
2018-11-01T22:12:12.497Z,17.90
2018-11-01T22:14:41.151Z,19.62
2018-11-01T22:17:09.719Z,22.73
2018-11-01T22:19:38.403Z,17.25
2018-11-01T22:22:07.089Z,17.27
2018-11-01T22:24:35.822Z,20.48
2018-11-01T22:27:04.465Z,20.15
2018-11-01T22:29:32.994Z,17.57
2018-11-01T22:32:01.574Z,17.20
2018-11-01T22:34:30.089Z,19.92
2018-11-01T22:36:58.677Z,21.55
2018-11-01T22:39:27.274Z,19.52
2018-11-01T22:41:55.810Z,16.60
2018-11-01T22:44:24.497Z,15.28
2018-11-01T22:46:53.339Z,17.60
2018-11-01T22:49:21.986Z,13.13
2018-11-01T22:51:50.531Z,16.37
2018-11-01T22:54:19.117Z,13.25
2018-11-01T22:56:47.681Z,17.30
2018-11-01T22:59:16.246Z,13.98
2018-11-01T23:01:44.774Z,13.53
2018-11-01T23:04:13.496Z,19.32
2018-11-01T23:06:42.123Z,14.68
2018-11-01T23:09:11.319Z,15.58
2018-11-01T23:11:40.409Z,14.73
2018-11-01T23:14:09.118Z,20.92
2018-11-01T23:16:37.786Z,14.13
2018-11-01T23:19:06.356Z,14.33
2018-11-01T23:21:34.924Z,17.77
2018-11-01T23:24:03.575Z,12.90
2018-11-01T23:26:32.313Z,14.10
2018-11-01T23:29:00.931Z,17.85
2018-11-01T23:31:29.480Z,12.93
2018-11-01T23:33:58.008Z,17.15
2018-11-01T23:36:25.780Z,17.62
2018-11-01T23:38:59.610Z,15.25
2018-11-01T23:41:33.568Z,15.90
2018-11-01T23:44:07.537Z,14.85
2018-11-01T23:46:41.534Z,18.40
2018-11-01T23:49:16.117Z,14.68
2018-11-01T23:51:48.844Z,17.05
2018-11-01T23:54:17.373Z,14.45
2018-11-01T23:56:45.893Z,16.23
2018-11-01T23:59:14.459Z,19.92
